createdAt,value
2024-03-12T00:02:01.952Z,14.37
2024-03-12T00:04:30.266Z,14.36
2024-03-12T00:06:58.711Z,14.34
2024-03-12T00:09:28.280Z,14.31
2024-03-12T00:11:56.389Z,14.30
2024-03-12T00:14:25.728Z,14.28
2024-03-12T00:16:53.704Z,14.25
2024-03-12T00:19:22.104Z,14.28
2024-03-12T00:21:50.810Z,14.27
2024-03-12T00:24:19.332Z,14.29
2024-03-12T00:26:48.992Z,14.29
2024-03-12T00:29:18.522Z,14.31
2024-03-12T00:31:47.940Z,14.29
2024-03-12T00:34:16.196Z,14.28
2024-03-12T00:36:45.204Z,14.28
2024-03-12T00:39:13.343Z,14.29
2024-03-12T00:41:41.289Z,14.30
2024-03-12T00:44:09.858Z,14.31
2024-03-12T00:46:38.056Z,14.33
2024-03-12T00:49:07.784Z,14.33
2024-03-12T00:51:35.960Z,14.35
2024-03-12T00:54:05.304Z,14.34
2024-03-12T00:56:34.216Z,14.33
2024-03-12T00:59:02.944Z,14.34
2024-03-12T01:01:31.566Z,14.33
2024-03-12T01:03:59.841Z,14.34
2024-03-12T01:06:29.914Z,14.34
2024-03-12T01:08:58.008Z,14.35
2024-03-12T01:11:26.068Z,14.38
2024-03-12T01:13:55.378Z,14.40
2024-03-12T01:16:23.442Z,14.43
2024-03-12T01:18:51.558Z,14.42
2024-03-12T01:21:20.977Z,14.43
2024-03-12T01:23:50.477Z,14.43
2024-03-12T01:26:18.501Z,14.49
2024-03-12T01:28:47.183Z,14.52
2024-03-12T01:31:16.444Z,14.50
2024-03-12T01:33:44.730Z,14.48
2024-03-12T01:36:21.813Z,14.47
2024-03-12T01:38:55.707Z,14.41
2024-03-12T01:41:24.303Z,14.44
2024-03-12T01:44:00.449Z,14.44
2024-03-12T01:46:30.070Z,14.47
2024-03-12T01:48:59.744Z,14.49
2024-03-12T01:51:28.376Z,14.51
2024-03-12T01:53:57.813Z,14.53
2024-03-12T01:56:26.283Z,14.54
2024-03-12T01:58:54.324Z,14.56
2024-03-12T02:01:22.670Z,14.56
2024-03-12T02:03:53.384Z,14.58
2024-03-12T02:06:21.788Z,14.61
2024-03-12T02:08:49.745Z,14.64
2024-03-12T02:11:19.267Z,14.66
2024-03-12T02:13:47.301Z,14.68
2024-03-12T02:16:15.344Z,14.70
2024-03-12T02:18:43.370Z,14.72
2024-03-12T02:21:11.358Z,14.73
2024-03-12T02:23:42.957Z,14.71
2024-03-12T02:26:11.655Z,14.70
2024-03-12T02:28:39.648Z,14.71
2024-03-12T02:31:08.314Z,14.70
2024-03-12T02:33:36.668Z,14.74
2024-03-12T02:36:06.341Z,14.73
2024-03-12T02:38:37.798Z,14.77
2024-03-12T02:41:08.228Z,14.80
2024-03-12T02:43:37.681Z,14.84
2024-03-12T02:46:05.823Z,14.86
2024-03-12T02:48:33.903Z,14.89
2024-03-12T02:51:02.591Z,14.90
2024-03-12T02:53:30.666Z,14.89
2024-03-12T02:55:58.680Z,14.84
2024-03-12T02:58:28.031Z,14.84
2024-03-12T03:00:56.918Z,14.86
2024-03-12T03:03:24.962Z,14.87
2024-03-12T03:05:54.052Z,14.83
2024-03-12T03:08:22.195Z,14.77
2024-03-12T03:10:50.256Z,14.83
2024-03-12T03:13:18.302Z,14.83
2024-03-12T03:15:48.049Z,14.85
2024-03-12T03:18:16.451Z,14.88
2024-03-12T03:20:44.932Z,14.90
2024-03-12T03:23:13.018Z,14.92
2024-03-12T03:25:41.022Z,14.90
2024-03-12T03:28:09.871Z,14.95
2024-03-12T03:30:37.878Z,14.91
2024-03-12T03:33:09.411Z,14.92
2024-03-12T03:35:37.450Z,14.96
2024-03-12T03:38:07.202Z,14.95
2024-03-12T03:40:35.220Z,14.95
2024-03-12T03:43:03.227Z,14.94
2024-03-12T03:45:31.306Z,14.92
2024-03-12T03:47:59.852Z,14.90
2024-03-12T03:50:29.405Z,14.89
2024-03-12T03:52:57.459Z,14.93
2024-03-12T03:55:25.499Z,14.96
2024-03-12T03:57:53.687Z,15.03
2024-03-12T04:00:24.502Z,15.11
2024-03-12T04:02:52.730Z,15.19
2024-03-12T04:05:21.458Z,15.20
2024-03-12T04:07:50.956Z,15.27
2024-03-12T04:10:19.039Z,15.34
2024-03-12T04:12:47.274Z,15.33
2024-03-12T04:15:15.425Z,15.38
2024-03-12T04:17:45.539Z,15.38
2024-03-12T04:20:14.406Z,15.30
2024-03-12T04:22:45.303Z,15.31
2024-03-12T04:25:14.907Z,15.32
2024-03-12T04:27:43.064Z,15.43
2024-03-12T04:30:12.210Z,15.45
2024-03-12T04:32:40.471Z,15.37
2024-03-12T04:35:11.019Z,15.38
2024-03-12T04:37:40.050Z,15.43
2024-03-12T04:40:09.891Z,15.39
2024-03-12T04:42:40.105Z,15.43
2024-03-12T04:45:09.745Z,15.45
2024-03-12T04:47:39.044Z,15.48
2024-03-12T04:50:09.400Z,15.49
2024-03-12T04:52:37.722Z,15.53
2024-03-12T04:55:07.144Z,15.42
2024-03-12T04:57:36.701Z,15.49
2024-03-12T05:00:15.170Z,15.50
2024-03-12T05:02:44.192Z,15.51
2024-03-12T05:05:15.196Z,15.46
2024-03-12T05:07:43.513Z,15.50
2024-03-12T05:10:12.878Z,15.51
2024-03-12T05:12:41.813Z,15.60
2024-03-12T05:15:11.587Z,15.57
2024-03-12T05:17:40.788Z,15.56
2024-03-12T05:20:10.733Z,15.51
2024-03-12T05:22:39.060Z,15.57
2024-03-12T05:25:10.881Z,15.59
2024-03-12T05:27:40.006Z,15.62
2024-03-12T05:30:11.690Z,15.66
2024-03-12T05:32:45.268Z,15.66
2024-03-12T05:35:18.658Z,15.66
2024-03-12T05:38:00.504Z,15.63
2024-03-12T05:40:31.305Z,15.53
2024-03-12T05:43:16.632Z,15.60
2024-03-12T05:46:02.697Z,15.55
2024-03-12T05:48:32.158Z,15.59
2024-03-12T05:51:00.710Z,15.55
2024-03-12T05:53:28.701Z,15.55
2024-03-12T05:55:56.985Z,15.60
2024-03-12T05:58:26.611Z,15.54
2024-03-12T06:00:55.116Z,15.59
2024-03-12T06:03:23.147Z,15.61
2024-03-12T06:05:52.644Z,15.53
2024-03-12T06:08:21.146Z,15.63
2024-03-12T06:10:49.225Z,15.46
2024-03-12T06:13:17.300Z,15.53
2024-03-12T06:15:46.514Z,15.57
2024-03-12T06:18:14.887Z,15.63
2024-03-12T06:20:47.116Z,15.58
2024-03-12T06:23:16.879Z,15.63
2024-03-12T06:25:47.926Z,15.52
2024-03-12T06:28:16.483Z,15.63
2024-03-12T06:30:45.282Z,15.58
2024-03-12T06:33:18.228Z,15.62
2024-03-12T06:35:48.560Z,15.59
2024-03-12T06:38:21.442Z,15.62
2024-03-12T06:40:49.876Z,15.62
2024-03-12T06:43:19.238Z,15.63
2024-03-12T06:45:48.180Z,15.62
2024-03-12T06:48:19.606Z,15.57
2024-03-12T06:50:48.007Z,15.64
2024-03-12T06:53:17.428Z,15.61
2024-03-12T06:55:47.044Z,15.68
2024-03-12T06:58:20.226Z,15.60
2024-03-12T07:00:49.552Z,15.67
2024-03-12T07:03:19.954Z,15.55
2024-03-12T07:05:49.743Z,15.60
2024-03-12T07:08:19.577Z,15.63
2024-03-12T07:10:47.886Z,15.60
2024-03-12T07:13:16.199Z,15.54
2024-03-12T07:15:46.350Z,15.62
2024-03-12T07:18:15.594Z,15.56
2024-03-12T07:20:45.461Z,15.63
2024-03-12T07:23:15.171Z,15.68
2024-03-12T07:25:44.757Z,15.59
2024-03-12T07:28:14.097Z,15.60
2024-03-12T07:30:42.437Z,15.60
2024-03-12T07:33:11.094Z,15.65
2024-03-12T07:35:39.144Z,15.66
2024-03-12T07:38:07.596Z,15.62
2024-03-12T07:40:36.781Z,15.65
2024-03-12T07:43:07.308Z,15.64
2024-03-12T07:45:37.624Z,15.59
2024-03-12T07:48:06.999Z,15.61
2024-03-12T07:50:36.033Z,15.50
2024-03-12T07:53:06.956Z,15.64
2024-03-12T07:55:36.543Z,15.68
2024-03-12T07:58:06.283Z,15.62
2024-03-12T08:00:34.900Z,15.69
2024-03-12T08:03:03.782Z,15.70
2024-03-12T08:05:34.979Z,15.73
2024-03-12T08:08:06.185Z,15.68
2024-03-12T08:10:34.329Z,15.67
2024-03-12T08:13:03.052Z,15.70
2024-03-12T08:15:32.548Z,15.72
2024-03-12T08:18:09.972Z,15.71
2024-03-12T08:20:47.252Z,15.75
2024-03-12T08:23:15.975Z,15.67
2024-03-12T08:25:55.004Z,15.72
2024-03-12T08:28:27.814Z,15.62
2024-03-12T08:31:02.524Z,15.67
2024-03-12T08:33:36.432Z,15.76
2024-03-12T08:36:05.161Z,15.81
2024-03-12T08:38:33.238Z,15.80
2024-03-12T08:41:01.274Z,15.89
2024-03-12T08:43:29.469Z,15.86
2024-03-12T08:45:59.890Z,15.85
2024-03-12T08:48:31.264Z,15.83
2024-03-12T08:50:59.327Z,15.74
2024-03-12T08:53:27.582Z,15.87
2024-03-12T08:55:56.057Z,15.88
2024-03-12T08:58:24.318Z,15.90
2024-03-12T09:00:52.826Z,15.92
2024-03-12T09:03:22.609Z,16.01
2024-03-12T09:05:51.359Z,15.95
2024-03-12T09:08:19.656Z,15.94
2024-03-12T09:10:48.911Z,15.84
2024-03-12T09:13:20.209Z,15.87
2024-03-12T09:15:49.636Z,15.86
2024-03-12T09:18:24.763Z,15.91
2024-03-12T09:20:57.934Z,15.94
2024-03-12T09:23:30.241Z,16.01
2024-03-12T09:25:58.857Z,16.02
2024-03-12T09:28:28.299Z,15.99
2024-03-12T09:30:57.106Z,15.98
2024-03-12T09:33:26.653Z,16.07
2024-03-12T09:35:56.258Z,16.01
2024-03-12T09:38:24.638Z,16.06
2024-03-12T09:40:53.494Z,16.12
2024-03-12T09:43:22.296Z,16.12
2024-03-12T09:45:50.453Z,15.98
2024-03-12T09:48:18.527Z,16.08
2024-03-12T09:50:46.600Z,16.07
2024-03-12T09:53:16.183Z,16.08
2024-03-12T09:55:45.960Z,16.14
2024-03-12T09:58:14.166Z,16.19
2024-03-12T10:00:42.545Z,16.19
2024-03-12T10:03:10.974Z,16.20
2024-03-12T10:05:41.424Z,16.06
2024-03-12T10:08:14.352Z,16.22
2024-03-12T10:10:45.033Z,16.24
2024-03-12T10:13:22.313Z,16.30
2024-03-12T10:15:52.879Z,16.23
2024-03-12T10:18:20.241Z,16.28
2024-03-12T10:20:49.188Z,16.29
2024-03-12T10:23:17.672Z,16.35
2024-03-12T10:25:47.201Z,16.37
2024-03-12T10:28:16.606Z,16.42
2024-03-12T10:30:46.980Z,16.41
2024-03-12T10:33:18.178Z,16.49
2024-03-12T10:35:46.690Z,16.55
2024-03-12T10:38:15.626Z,16.60
2024-03-12T10:40:43.881Z,16.51
2024-03-12T10:43:13.418Z,16.57
2024-03-12T10:45:41.845Z,16.61
2024-03-12T10:48:12.307Z,16.57
2024-03-12T10:50:42.253Z,16.45
2024-03-12T10:53:13.242Z,16.58
2024-03-12T10:55:43.064Z,16.51
2024-03-12T10:58:12.963Z,16.60
2024-03-12T11:00:41.709Z,16.63
2024-03-12T11:03:14.676Z,16.57
2024-03-12T11:05:43.486Z,16.56
2024-03-12T11:08:11.710Z,16.59
2024-03-12T11:13:14.526Z,16.54
2024-03-12T11:15:43.905Z,16.60
2024-03-12T11:18:12.297Z,16.64
2024-03-12T11:20:40.838Z,16.50
2024-03-12T11:23:11.817Z,16.64
2024-03-12T11:25:49.809Z,16.73
2024-03-12T11:28:21.845Z,16.70
2024-03-12T11:30:50.657Z,16.72
2024-03-12T11:33:54.271Z,16.79
2024-03-12T11:36:24.177Z,16.86
2024-03-12T11:38:52.992Z,16.88
2024-03-12T11:41:24.229Z,16.78
2024-03-12T11:43:54.274Z,16.91
2024-03-12T11:46:43.233Z,17.03
2024-03-12T11:49:33.728Z,17.04
2024-03-12T11:52:01.980Z,17.10
2024-03-12T11:54:44.199Z,17.05
2024-03-12T11:57:20.992Z,17.13
2024-03-12T11:59:50.770Z,17.16
2024-03-12T12:02:21.618Z,17.11
2024-03-12T12:04:52.598Z,17.20
2024-03-12T12:07:23.459Z,17.30
2024-03-12T12:09:52.892Z,17.37
2024-03-12T12:12:21.181Z,17.38
2024-03-12T12:14:51.114Z,17.44
2024-03-12T12:17:22.928Z,17.45
2024-03-12T12:20:14.970Z,17.55
2024-03-12T12:22:46.507Z,17.54
2024-03-12T12:25:17.318Z,17.68
2024-03-12T12:27:45.518Z,17.73
2024-03-12T12:30:16.880Z,17.60
2024-03-12T12:32:45.599Z,17.47
2024-03-12T12:35:15.572Z,17.43
2024-03-12T12:37:46.002Z,17.43
2024-03-12T12:40:18.076Z,17.47
2024-03-12T12:42:47.637Z,17.38
2024-03-12T12:45:17.576Z,17.45
2024-03-12T12:47:51.171Z,17.34
2024-03-12T12:50:29.729Z,17.42
2024-03-12T12:53:00.379Z,17.41
2024-03-12T12:55:28.973Z,17.62
2024-03-12T12:58:01.044Z,17.69
2024-03-12T13:00:31.692Z,17.75
2024-03-12T13:03:13.298Z,18.03
2024-03-12T13:05:42.756Z,18.04
2024-03-12T13:08:26.392Z,18.09
2024-03-12T13:11:06.037Z,18.03
2024-03-12T13:13:35.172Z,18.06
2024-03-12T13:16:20.303Z,18.17
2024-03-12T13:18:51.953Z,18.11
2024-03-12T13:21:23.183Z,18.14
2024-03-12T13:23:51.625Z,18.00
2024-03-12T13:26:20.672Z,18.05
2024-03-12T13:28:49.641Z,18.04
2024-03-12T13:31:19.361Z,18.02
2024-03-12T13:33:48.278Z,17.88
2024-03-12T13:36:18.701Z,17.79
2024-03-12T13:38:47.916Z,17.80
2024-03-12T13:41:19.532Z,17.97
2024-03-12T13:43:58.818Z,17.97
2024-03-12T13:46:29.499Z,18.08
2024-03-12T13:49:10.653Z,18.11
2024-03-12T13:51:39.126Z,18.06
2024-03-12T13:54:09.317Z,17.96
2024-03-12T13:56:37.791Z,17.80
2024-03-12T13:59:06.350Z,17.84
2024-03-12T14:01:36.495Z,17.93
2024-03-12T14:04:05.631Z,17.99
2024-03-12T14:06:35.060Z,18.02
2024-03-12T14:09:06.169Z,18.01
2024-03-12T14:11:34.270Z,18.04
2024-03-12T14:14:03.695Z,17.99
2024-03-12T14:16:31.792Z,17.94
2024-03-12T14:19:01.230Z,17.98
2024-03-12T14:21:30.150Z,17.90
2024-03-12T14:23:58.890Z,17.84
2024-03-12T14:26:27.378Z,17.81
2024-03-12T14:28:56.214Z,17.78
2024-03-12T14:31:24.577Z,17.52
2024-03-12T14:33:53.179Z,17.55
2024-03-12T14:36:22.655Z,17.58
2024-03-12T14:38:54.312Z,17.52
2024-03-12T14:41:23.647Z,17.47
2024-03-12T14:43:51.963Z,17.52
2024-03-12T14:46:20.671Z,17.48
2024-03-12T14:48:49.765Z,17.51
2024-03-12T14:51:17.898Z,17.47
2024-03-12T14:53:47.920Z,17.46
2024-03-12T14:56:17.692Z,17.32
2024-03-12T14:58:46.074Z,17.37
2024-03-12T15:01:14.850Z,17.42
2024-03-12T15:03:43.344Z,17.38
2024-03-12T15:06:11.802Z,17.39
2024-03-12T15:08:40.087Z,17.53
2024-03-12T15:11:09.631Z,17.68
2024-03-12T15:13:38.143Z,17.68
2024-03-12T15:16:09.975Z,17.69
2024-03-12T15:18:40.352Z,17.71
2024-03-12T15:21:08.557Z,17.65
2024-03-12T15:23:36.888Z,17.62
2024-03-12T15:26:06.422Z,17.65
2024-03-12T15:28:36.948Z,17.52
2024-03-12T15:31:05.790Z,17.61
2024-03-12T15:33:35.250Z,17.61
2024-03-12T15:36:04.979Z,17.62
2024-03-12T15:38:34.140Z,17.56
2024-03-12T15:41:02.322Z,17.55
2024-03-12T15:43:30.545Z,17.61
2024-03-12T15:46:00.169Z,17.52
2024-03-12T15:48:28.378Z,17.41
2024-03-12T15:50:56.578Z,17.22
2024-03-12T15:53:24.709Z,17.33
2024-03-12T15:55:54.917Z,17.29
2024-03-12T15:58:27.069Z,17.26
2024-03-12T16:00:55.714Z,17.15
2024-03-12T16:03:25.007Z,17.19
2024-03-12T16:05:54.050Z,17.08
2024-03-12T16:08:22.115Z,17.12
2024-03-12T16:10:52.922Z,17.13
2024-03-12T16:13:22.519Z,17.12
2024-03-12T16:15:51.268Z,17.09
2024-03-12T16:18:19.354Z,17.02
2024-03-12T16:20:49.019Z,16.96
2024-03-12T16:23:18.619Z,16.95
2024-03-12T16:25:47.127Z,16.89
2024-03-12T16:28:15.324Z,16.79
2024-03-12T16:30:43.646Z,16.76
2024-03-12T16:33:14.245Z,16.73
2024-03-12T16:35:42.502Z,16.69
2024-03-12T16:38:14.036Z,16.67
2024-03-12T16:40:42.361Z,16.67
2024-03-12T16:43:10.493Z,16.64
2024-03-12T16:45:38.593Z,16.65
2024-03-12T16:48:09.692Z,16.68
2024-03-12T16:50:37.881Z,16.65
2024-03-12T16:53:05.941Z,16.66
2024-03-12T16:55:36.178Z,16.63
2024-03-12T16:58:05.121Z,16.62
2024-03-12T17:00:38.807Z,16.59
2024-03-12T17:03:07.844Z,16.62
2024-03-12T17:05:37.304Z,16.61
2024-03-12T17:08:05.771Z,16.56
2024-03-12T17:10:37.017Z,16.53
2024-03-12T17:13:06.021Z,16.55
2024-03-12T17:15:35.121Z,16.55
2024-03-12T17:18:05.073Z,16.55
2024-03-12T17:20:35.259Z,16.55
2024-03-12T17:23:05.508Z,16.51
2024-03-12T17:25:35.697Z,16.50
2024-03-12T17:28:05.115Z,16.52
2024-03-12T17:30:33.880Z,16.48
2024-03-12T17:33:02.742Z,16.51
2024-03-12T17:35:32.323Z,16.50
2024-03-12T17:38:02.232Z,16.52
2024-03-12T17:40:33.719Z,16.55
2024-03-12T17:43:04.024Z,16.53
2024-03-12T17:45:32.908Z,16.52
2024-03-12T17:48:02.199Z,16.53
2024-03-12T17:50:31.737Z,16.53
2024-03-12T17:53:00.595Z,16.51
2024-03-12T17:55:29.769Z,16.49
2024-03-12T17:57:58.207Z,16.45
2024-03-12T18:00:28.041Z,16.42
2024-03-12T18:02:57.775Z,16.37
2024-03-12T18:05:27.760Z,16.38
2024-03-12T18:07:56.339Z,16.34
2024-03-12T18:10:27.385Z,16.38
2024-03-12T18:12:56.282Z,16.32
2024-03-12T18:15:24.921Z,16.37
2024-03-12T18:17:54.652Z,16.34
2024-03-12T18:20:25.787Z,16.31
2024-03-12T18:22:54.381Z,16.31
2024-03-12T18:25:22.875Z,16.31
2024-03-12T18:27:54.627Z,16.27
2024-03-12T18:30:23.333Z,16.24
2024-03-12T18:32:51.377Z,16.27
2024-03-12T18:35:21.048Z,16.21
2024-03-12T18:37:49.145Z,16.24
2024-03-12T18:40:19.961Z,16.25
2024-03-12T18:42:49.367Z,16.23
2024-03-12T18:45:19.346Z,16.20
2024-03-12T18:47:49.245Z,16.24
2024-03-12T18:50:18.284Z,16.24
2024-03-12T18:52:48.681Z,16.27
2024-03-12T18:55:18.342Z,16.26
2024-03-12T18:57:47.265Z,16.26
2024-03-12T19:00:19.413Z,16.22
2024-03-12T19:02:48.587Z,16.25
2024-03-12T19:05:18.310Z,16.27
2024-03-12T19:07:50.201Z,16.20
2024-03-12T19:10:19.807Z,16.23
2024-03-12T19:12:48.706Z,16.21
2024-03-12T19:15:22.093Z,16.24
2024-03-12T19:18:02.094Z,16.23
2024-03-12T19:20:30.950Z,16.23
2024-03-12T19:23:00.948Z,16.26
2024-03-12T19:25:29.027Z,16.28
2024-03-12T19:27:57.248Z,16.24
2024-03-12T19:30:26.335Z,16.28
2024-03-12T19:32:56.130Z,16.23
2024-03-12T19:35:24.714Z,16.31
2024-03-12T19:37:54.117Z,16.31
2024-03-12T19:40:24.599Z,16.24
2024-03-12T19:42:55.990Z,16.28
2024-03-12T19:45:26.876Z,16.31
2024-03-12T19:47:57.290Z,16.31
2024-03-12T19:50:26.888Z,16.36
2024-03-12T19:52:56.244Z,16.42
2024-03-12T19:55:26.954Z,16.42
2024-03-12T19:57:56.644Z,16.43
2024-03-12T20:00:26.799Z,16.39
2024-03-12T20:02:55.709Z,16.40
2024-03-12T20:05:23.823Z,16.39
2024-03-12T20:07:52.393Z,16.44
2024-03-12T20:10:21.531Z,16.44
2024-03-12T20:12:56.490Z,16.45
2024-03-12T20:15:25.195Z,16.44
2024-03-12T20:17:53.656Z,16.44
2024-03-12T20:20:24.266Z,16.43
2024-03-12T20:22:53.544Z,16.43
2024-03-12T20:25:22.943Z,16.46
2024-03-12T20:27:55.256Z,16.44
2024-03-12T20:30:28.416Z,16.40
2024-03-12T20:32:59.986Z,16.44
2024-03-12T20:35:31.480Z,16.43
2024-03-12T20:37:59.686Z,16.49
2024-03-12T20:40:28.730Z,16.46
2024-03-12T20:43:00.609Z,16.42
2024-03-12T20:45:30.059Z,16.48
2024-03-12T20:47:59.127Z,16.51
2024-03-12T20:50:27.449Z,16.51
2024-03-12T20:52:56.876Z,16.49
2024-03-12T20:55:25.739Z,16.51
2024-03-12T20:57:53.929Z,16.50
2024-03-12T21:00:29.466Z,16.51
2024-03-12T21:02:57.779Z,16.55
2024-03-12T21:05:28.233Z,16.53
2024-03-12T21:07:56.398Z,16.55
2024-03-12T21:10:24.604Z,16.56
2024-03-12T21:12:53.870Z,16.57
2024-03-12T21:15:23.711Z,16.49
2024-03-12T21:17:51.972Z,16.57
2024-03-12T21:20:25.504Z,16.59
2024-03-12T21:22:53.829Z,16.57
2024-03-12T21:25:22.179Z,16.57
2024-03-12T21:27:50.332Z,16.53
2024-03-12T21:30:20.259Z,16.56
2024-03-12T21:32:51.098Z,16.49
2024-03-12T21:35:19.212Z,16.52
2024-03-12T21:37:47.523Z,16.50
2024-03-12T21:40:17.351Z,16.49
2024-03-12T21:42:45.822Z,16.51
2024-03-12T21:45:16.583Z,16.42
2024-03-12T21:47:47.084Z,16.42
2024-03-12T21:50:18.466Z,16.42
2024-03-12T21:52:47.073Z,16.44
2024-03-12T21:55:15.485Z,16.39
2024-03-12T21:57:44.845Z,16.38
2024-03-12T22:00:19.985Z,16.39
2024-03-12T22:02:49.135Z,16.36
2024-03-12T22:05:21.196Z,16.37
2024-03-12T22:07:51.156Z,16.40
2024-03-12T22:10:19.725Z,16.44
2024-03-12T22:12:47.975Z,16.44
2024-03-12T22:15:16.905Z,16.48
2024-03-12T22:17:45.813Z,16.48
2024-03-12T22:20:16.341Z,16.45
2024-03-12T22:22:46.981Z,16.43
2024-03-12T22:25:15.263Z,16.46
2024-03-12T22:27:43.838Z,16.49
2024-03-12T22:30:12.556Z,16.47
2024-03-12T22:32:43.374Z,16.50
2024-03-12T22:35:11.752Z,16.45
2024-03-12T22:37:40.351Z,16.49
2024-03-12T22:40:13.503Z,16.51
2024-03-12T22:42:42.282Z,16.47
2024-03-12T22:45:12.595Z,16.47
2024-03-12T22:47:41.680Z,16.50
2024-03-12T22:50:10.893Z,16.54
2024-03-12T22:52:39.350Z,16.52
2024-03-12T22:55:09.821Z,16.54
2024-03-12T22:57:39.913Z,16.56
2024-03-12T23:00:24.536Z,16.58
2024-03-12T23:02:53.092Z,16.52
2024-03-12T23:05:21.985Z,16.59
2024-03-12T23:07:50.678Z,16.58
2024-03-12T23:10:22.716Z,16.55
2024-03-12T23:12:51.074Z,16.59
2024-03-12T23:15:19.772Z,16.51
2024-03-12T23:17:49.766Z,16.54
2024-03-12T23:20:17.961Z,16.53
2024-03-12T23:22:46.245Z,16.51
2024-03-12T23:25:14.642Z,16.50
2024-03-12T23:27:44.222Z,16.45
2024-03-12T23:30:14.024Z,16.42
2024-03-12T23:32:43.218Z,16.43
2024-03-12T23:35:11.379Z,16.41
2024-03-12T23:37:39.880Z,16.45
2024-03-12T23:40:09.075Z,16.34
2024-03-12T23:42:37.103Z,16.29
2024-03-12T23:45:09.813Z,16.37
2024-03-12T23:47:37.911Z,16.38
2024-03-12T23:50:08.760Z,16.34
2024-03-12T23:52:37.527Z,16.30
2024-03-12T23:55:06.649Z,16.19
2024-03-12T23:57:35.458Z,16.25
